createdAt,value
2019-03-17T00:00:48.310Z,99460.22
2019-03-17T00:03:19.917Z,99458.79
2019-03-17T00:05:52.101Z,99455.36
2019-03-17T00:08:23.708Z,99448.66
2019-03-17T00:10:55.327Z,99449.32
2019-03-17T00:13:26.942Z,99441.17
2019-03-17T00:15:58.572Z,99442.72
2019-03-17T00:18:30.249Z,99439.05
2019-03-17T00:21:02.232Z,99440.06
2019-03-17T00:23:33.826Z,99442.67
2019-03-17T00:26:05.676Z,99437.31
2019-03-17T00:28:37.348Z,99434.56
2019-03-17T00:31:09.015Z,99431.00
2019-03-17T00:33:40.794Z,99422.52
2019-03-17T00:36:12.806Z,99423.42
2019-03-17T00:38:44.420Z,99418.60
2019-03-17T00:41:16.074Z,99423.68
2019-03-17T00:43:47.675Z,99420.16
2019-03-17T00:46:19.301Z,99425.12
2019-03-17T00:48:50.995Z,99426.62
2019-03-17T00:51:22.883Z,99423.81
2019-03-17T00:53:54.833Z,99421.77
2019-03-17T00:56:26.521Z,99428.77
2019-03-17T00:58:58.154Z,99408.36
2019-03-17T01:01:29.981Z,99410.77
2019-03-17T01:04:01.701Z,99415.34
2019-03-17T01:06:33.403Z,99412.39
2019-03-17T01:09:06.567Z,99413.19
2019-03-17T01:11:38.160Z,99403.46
2019-03-17T01:14:10.332Z,99395.53
2019-03-17T01:16:42.026Z,99383.64
2019-03-17T01:19:13.679Z,99377.52
2019-03-17T01:21:45.331Z,99380.89
2019-03-17T01:24:17.230Z,99384.75
2019-03-17T01:26:49.095Z,99384.23
2019-03-17T01:29:20.750Z,99374.36
2019-03-17T01:31:52.409Z,99383.44
2019-03-17T01:34:24.093Z,99378.17
2019-03-17T01:36:55.756Z,99372.51
2019-03-17T01:39:27.356Z,99376.13
2019-03-17T01:41:58.981Z,99352.20
2019-03-17T01:44:30.890Z,99350.39
2019-03-17T01:47:02.465Z,99348.95
2019-03-17T01:49:34.108Z,99337.66
2019-03-17T01:52:05.684Z,99340.22
2019-03-17T01:54:37.348Z,99347.13
2019-03-17T01:57:08.944Z,99344.92
2019-03-17T01:59:40.997Z,99339.70
2019-03-17T02:02:12.564Z,99346.68
2019-03-17T02:04:44.385Z,99342.77
2019-03-17T02:07:16.048Z,99335.54
2019-03-17T02:09:47.668Z,99331.34
2019-03-17T02:12:19.227Z,99329.00
2019-03-17T02:14:51.292Z,99319.37
2019-03-17T02:17:22.903Z,99324.78
2019-03-17T02:19:54.539Z,99314.16
2019-03-17T02:22:26.231Z,99331.24
2019-03-17T02:24:57.980Z,99320.67
2019-03-17T02:27:29.545Z,99320.61
2019-03-17T02:30:01.301Z,99313.24
2019-03-17T02:32:33.421Z,99309.28
2019-03-17T02:35:05.766Z,99303.21
2019-03-17T02:37:37.413Z,99306.84
2019-03-17T02:40:09.024Z,99302.73
2019-03-17T02:42:40.785Z,99299.62
2019-03-17T02:45:12.874Z,99305.23
2019-03-17T02:47:44.930Z,99299.41
2019-03-17T02:50:16.535Z,99287.83
2019-03-17T02:52:48.140Z,99300.52
2019-03-17T02:55:19.850Z,99297.30
2019-03-17T02:57:51.615Z,99292.09
2019-03-17T03:00:23.220Z,99279.70
2019-03-17T03:02:55.544Z,99271.58
2019-03-17T03:05:27.108Z,99273.98
2019-03-17T03:07:58.776Z,99292.39
2019-03-17T03:10:32.018Z,99282.22
2019-03-17T03:13:03.814Z,99275.91
2019-03-17T03:15:35.390Z,99279.41
2019-03-17T03:18:07.455Z,99272.84
2019-03-17T03:20:39.075Z,99272.77
2019-03-17T03:23:10.677Z,99275.81
2019-03-17T03:25:42.445Z,99272.10
2019-03-17T03:28:14.171Z,99277.84
2019-03-17T03:30:45.721Z,99267.03
2019-03-17T03:33:18.007Z,99270.88
2019-03-17T03:35:49.603Z,99266.49
2019-03-17T03:38:21.182Z,99265.27
2019-03-17T03:40:52.912Z,99261.16
2019-03-17T03:43:24.525Z,99262.96
2019-03-17T03:45:56.173Z,99263.81
2019-03-17T03:48:27.802Z,99253.14
2019-03-17T03:51:00.081Z,99248.44
2019-03-17T03:53:31.721Z,99243.83
2019-03-17T03:56:03.533Z,99239.22
2019-03-17T03:58:35.148Z,99240.25
2019-03-17T04:01:06.835Z,99233.08
2019-03-17T04:03:38.484Z,99230.58
2019-03-17T04:06:25.194Z,99230.58
2019-03-17T04:08:44.019Z,99235.33
2019-03-17T04:11:15.645Z,99236.31
2019-03-17T04:13:47.196Z,99235.25
2019-03-17T04:16:18.777Z,99233.78
2019-03-17T04:18:50.438Z,99238.13
2019-03-17T04:21:22.843Z,99230.73
2019-03-17T04:23:54.501Z,99230.23
2019-03-17T04:26:26.565Z,99226.64
2019-03-17T04:28:58.167Z,99219.11
2019-03-17T04:31:29.799Z,99218.16
2019-03-17T04:34:01.560Z,99222.11
2019-03-17T04:36:40.248Z,99220.36
2019-03-17T04:39:08.868Z,99220.98
2019-03-17T04:41:40.465Z,99221.00
2019-03-17T04:44:20.814Z,99222.34
2019-03-17T04:46:45.414Z,99227.42
2019-03-17T04:49:17.000Z,99226.30
2019-03-17T04:51:48.786Z,99221.09
2019-03-17T04:54:20.775Z,99223.65
2019-03-17T04:56:52.798Z,99223.92
2019-03-17T04:59:24.371Z,99224.19
2019-03-17T05:01:56.058Z,99219.75
2019-03-17T05:04:27.729Z,99221.36
2019-03-17T05:06:59.334Z,99219.56
2019-03-17T05:09:30.927Z,99210.83
2019-03-17T05:12:02.933Z,99216.88
2019-03-17T05:14:34.628Z,99215.08
2019-03-17T05:17:06.254Z,99219.44
2019-03-17T05:19:37.852Z,99210.33
2019-03-17T05:22:09.509Z,99205.77
2019-03-17T05:24:41.425Z,99210.34
2019-03-17T05:27:13.543Z,99203.17
2019-03-17T05:29:45.137Z,99206.34
2019-03-17T05:32:16.767Z,99207.78
2019-03-17T05:34:48.352Z,99212.17
2019-03-17T05:37:19.973Z,99218.32
2019-03-17T05:39:51.674Z,99223.47
2019-03-17T05:42:23.249Z,99223.15
2019-03-17T05:44:55.183Z,99226.20
2019-03-17T05:47:26.851Z,99224.90
2019-03-17T05:49:58.722Z,99221.14
2019-03-17T05:52:30.310Z,99217.55
2019-03-17T05:55:02.031Z,99220.29
2019-03-17T05:57:33.708Z,99218.36
2019-03-17T06:00:06.321Z,99220.41
2019-03-17T06:02:37.914Z,99219.38
2019-03-17T06:05:10.333Z,99223.11
2019-03-17T06:07:41.931Z,99223.77
2019-03-17T06:10:13.748Z,99221.04
2019-03-17T06:12:45.698Z,99224.39
2019-03-17T06:15:17.825Z,99229.73
2019-03-17T06:17:49.615Z,99223.03
2019-03-17T06:20:21.326Z,99223.70
2019-03-17T06:22:52.906Z,99223.47
2019-03-17T06:25:24.645Z,99231.97
2019-03-17T06:27:56.516Z,99230.42
2019-03-17T06:30:28.885Z,99237.94
2019-03-17T06:33:00.657Z,99235.41
2019-03-17T06:35:32.267Z,99232.95
2019-03-17T06:38:03.887Z,99239.53
2019-03-17T06:40:35.499Z,99230.11
2019-03-17T06:43:07.351Z,99229.31
2019-03-17T06:45:39.592Z,99226.70
2019-03-17T06:48:11.207Z,99225.80
2019-03-17T06:50:42.863Z,99220.31
2019-03-17T06:53:14.641Z,99216.81
2019-03-17T06:55:46.415Z,99215.39
2019-03-17T06:58:18.018Z,99218.16
2019-03-17T07:00:50.538Z,99211.58
2019-03-17T07:03:22.161Z,99216.78
2019-03-17T07:05:54.075Z,99219.73
2019-03-17T07:08:25.674Z,99216.52
2019-03-17T07:10:57.405Z,99223.22
2019-03-17T07:13:29.048Z,99214.73
2019-03-17T07:16:01.331Z,99220.30
2019-03-17T07:18:32.969Z,99228.12
2019-03-17T07:21:04.675Z,99231.33
2019-03-17T07:23:36.318Z,99226.69
2019-03-17T07:26:08.514Z,99231.63
2019-03-17T07:28:40.145Z,99228.73
2019-03-17T07:31:11.884Z,99231.99
2019-03-17T07:33:44.110Z,99225.77
2019-03-17T07:36:15.706Z,99235.34
2019-03-17T07:38:47.367Z,99243.17
2019-03-17T07:41:18.982Z,99237.02
2019-03-17T07:43:50.601Z,99238.64
2019-03-17T07:46:22.212Z,99243.27
2019-03-17T07:48:54.218Z,99241.27
2019-03-17T07:51:25.936Z,99240.53
2019-03-17T07:53:57.587Z,99244.60
2019-03-17T07:56:29.291Z,99242.61
2019-03-17T07:59:00.997Z,99241.85
2019-03-17T08:01:32.700Z,99249.92
2019-03-17T08:04:05.157Z,99243.09
2019-03-17T08:06:36.774Z,99243.38
2019-03-17T08:09:09.645Z,99234.28
2019-03-17T08:11:41.292Z,99224.98
2019-03-17T08:14:12.940Z,99230.87
2019-03-17T08:16:44.622Z,99222.78
2019-03-17T08:19:16.943Z,99221.26
2019-03-17T08:21:48.600Z,99220.20
2019-03-17T08:24:20.210Z,99231.45
2019-03-17T08:26:52.083Z,99220.92
2019-03-17T08:29:23.915Z,99209.92
2019-03-17T08:31:55.586Z,99227.00
2019-03-17T08:34:27.892Z,99217.48
2019-03-17T08:36:59.577Z,99229.27
2019-03-17T08:39:31.309Z,99222.20
2019-03-17T08:42:02.994Z,99233.64
2019-03-17T08:44:34.846Z,99237.81
2019-03-17T08:47:06.573Z,99238.13
2019-03-17T08:49:38.865Z,99233.59
2019-03-17T08:52:10.658Z,99236.16
2019-03-17T08:54:42.327Z,99238.75
2019-03-17T08:57:14.018Z,99240.50
2019-03-17T08:59:45.830Z,99243.91
2019-03-17T09:02:17.530Z,99238.51
2019-03-17T09:04:49.453Z,99245.42
2019-03-17T09:07:21.895Z,99255.31
2019-03-17T09:09:53.521Z,99253.58
2019-03-17T09:12:25.476Z,99262.75
2019-03-17T09:14:57.192Z,99268.22
2019-03-17T09:17:28.908Z,99262.77
2019-03-17T09:20:00.662Z,99274.24
2019-03-17T09:22:33.120Z,99263.64
2019-03-17T09:25:04.977Z,99262.97
2019-03-17T09:27:36.814Z,99266.50
2019-03-17T09:30:10.866Z,99257.78
2019-03-17T09:32:42.688Z,99262.48
2019-03-17T09:35:14.467Z,99250.27
2019-03-17T09:37:46.871Z,99260.86
2019-03-17T09:40:18.535Z,99263.89
2019-03-17T09:42:50.284Z,99257.27
2019-03-17T09:45:22.069Z,99255.73
2019-03-17T09:47:53.730Z,99256.73
2019-03-17T09:50:25.419Z,99246.33
2019-03-17T09:52:57.869Z,99242.17
2019-03-17T09:55:29.505Z,99232.81
2019-03-17T09:58:01.177Z,99236.56
2019-03-17T10:00:32.902Z,99233.33
2019-03-17T10:03:04.557Z,99237.77
2019-03-17T10:05:36.247Z,99236.61
2019-03-17T10:08:08.391Z,99236.73
2019-03-17T10:10:40.118Z,99230.34
2019-03-17T10:13:11.855Z,99225.30
2019-03-17T10:15:43.518Z,99230.09
2019-03-17T10:18:15.501Z,99228.52
2019-03-17T10:20:47.178Z,99219.89
2019-03-17T10:23:19.559Z,99217.97
2019-03-17T10:25:50.450Z,99221.32
2019-03-17T10:28:19.718Z,99221.34
2019-03-17T10:30:51.482Z,99227.01
2019-03-17T10:33:23.400Z,99230.02
2019-03-17T10:35:55.068Z,99220.70
2019-03-17T10:38:26.839Z,99219.49
2019-03-17T10:40:59.006Z,99227.64
2019-03-17T10:43:30.659Z,99235.34
2019-03-17T10:46:02.337Z,99230.64
2019-03-17T10:48:34.062Z,99225.72
2019-03-17T10:51:05.791Z,99218.86
2019-03-17T10:53:37.455Z,99221.40
2019-03-17T10:56:09.760Z,99225.37
2019-03-17T10:58:41.463Z,99219.70
2019-03-17T11:01:13.206Z,99223.45
2019-03-17T11:03:45.270Z,99225.14
2019-03-17T11:06:17.068Z,99219.84
2019-03-17T11:08:48.785Z,99212.39
2019-03-17T11:11:21.114Z,99212.13
2019-03-17T11:13:52.773Z,99208.53
2019-03-17T11:16:24.455Z,99212.39
2019-03-17T11:18:56.319Z,99207.79
2019-03-17T11:21:28.216Z,99203.58
2019-03-17T11:23:59.893Z,99207.76
2019-03-17T11:26:32.545Z,99214.94
2019-03-17T11:29:04.240Z,99246.31
2019-03-17T11:31:35.936Z,99219.98
2019-03-17T11:34:07.615Z,99212.36
2019-03-17T11:36:39.404Z,99208.67
2019-03-17T11:39:11.070Z,99205.16
2019-03-17T11:41:43.455Z,99213.31
2019-03-17T11:44:15.198Z,99210.43
2019-03-17T11:46:46.925Z,99225.59
2019-03-17T11:49:18.660Z,99234.02
2019-03-17T11:51:50.345Z,99239.09
2019-03-17T11:54:22.394Z,99243.32
2019-03-17T11:56:55.081Z,99237.77
2019-03-17T11:59:27.052Z,99236.83
2019-03-17T12:01:59.159Z,99237.58
2019-03-17T12:04:32.345Z,99251.41
2019-03-17T12:07:04.063Z,99254.44
2019-03-17T12:09:35.917Z,99261.67
2019-03-17T12:12:07.785Z,99271.52
2019-03-17T12:14:40.186Z,99278.60
2019-03-17T12:17:11.948Z,99277.87
2019-03-17T12:19:43.644Z,99284.53
2019-03-17T12:22:15.272Z,99307.07
2019-03-17T12:24:47.518Z,99320.11
2019-03-17T12:27:19.614Z,99334.30
2019-03-17T12:29:54.846Z,99351.03
2019-03-17T12:32:26.794Z,99353.66
2019-03-17T12:34:58.664Z,99358.95
2019-03-17T12:37:30.353Z,99378.18
2019-03-17T12:40:03.039Z,99375.32
2019-03-17T12:42:35.964Z,99373.09
2019-03-17T12:45:09.383Z,99383.25
2019-03-17T12:47:41.069Z,99384.16
2019-03-17T12:50:14.024Z,99393.03
2019-03-17T12:52:45.984Z,99401.95
2019-03-17T12:55:17.672Z,99396.05
2019-03-17T12:57:49.419Z,99419.90
2019-03-17T13:00:22.766Z,99438.15
2019-03-17T13:02:55.093Z,99468.03
2019-03-17T13:05:26.829Z,99471.61
2019-03-17T13:07:58.700Z,99471.50
2019-03-17T13:10:30.576Z,99495.96
2019-03-17T13:13:02.310Z,99514.88
2019-03-17T13:15:34.717Z,99514.58
2019-03-17T13:18:06.473Z,99508.86
2019-03-17T13:20:38.716Z,99509.36
2019-03-17T13:23:10.400Z,99523.27
2019-03-17T13:25:42.641Z,99542.16
2019-03-17T13:28:14.390Z,99545.51
2019-03-17T13:30:46.631Z,99537.97
2019-03-17T13:33:18.324Z,99539.91
2019-03-17T13:35:50.350Z,99519.55
2019-03-17T13:38:22.143Z,99537.80
2019-03-17T13:40:54.557Z,99553.00
2019-03-17T13:43:26.307Z,99564.33
2019-03-17T13:45:58.604Z,99566.45
2019-03-17T13:48:30.369Z,99570.52
2019-03-17T13:51:02.145Z,99571.08
2019-03-17T13:53:34.021Z,99577.70
2019-03-17T13:56:05.784Z,99582.87
2019-03-17T13:58:37.569Z,99601.61
2019-03-17T14:01:09.215Z,99600.13
2019-03-17T14:03:41.517Z,99590.79
2019-03-17T14:06:13.251Z,99595.96
2019-03-17T14:08:46.337Z,99591.81
2019-03-17T14:11:18.333Z,99598.04
2019-03-17T14:13:50.350Z,99585.56
2019-03-17T14:16:22.051Z,99576.72
2019-03-17T14:18:54.519Z,99585.39
2019-03-17T14:21:26.261Z,99593.82
2019-03-17T14:23:58.040Z,99605.22
2019-03-17T14:26:29.035Z,99616.03
2019-03-17T14:28:58.296Z,99624.11
2019-03-17T14:31:29.997Z,99620.80
2019-03-17T14:34:02.492Z,99623.70
2019-03-17T14:36:34.201Z,99614.29
2019-03-17T14:39:07.298Z,99624.25
2019-03-17T14:41:39.155Z,99638.03
2019-03-17T14:44:10.884Z,99636.13
2019-03-17T14:46:42.657Z,99629.33
2019-03-17T14:49:15.211Z,99637.41
2019-03-17T14:51:46.996Z,99644.50
2019-03-17T14:54:18.894Z,99649.13
2019-03-17T14:56:50.692Z,99649.30
2019-03-17T14:59:22.396Z,99655.80
2019-03-17T15:01:54.266Z,99661.03
2019-03-17T15:04:26.734Z,99657.23
2019-03-17T15:06:58.443Z,99645.68
2019-03-17T15:09:30.251Z,99652.86
2019-03-17T15:12:01.972Z,99657.34
2019-03-17T15:14:33.905Z,99656.55
2019-03-17T15:17:05.663Z,99657.57
2019-03-17T15:19:38.228Z,99661.50
2019-03-17T15:22:09.876Z,99651.55
2019-03-17T15:24:41.590Z,99650.92
2019-03-17T15:27:13.742Z,99654.63
2019-03-17T15:29:45.635Z,99652.70
2019-03-17T15:32:17.599Z,99648.55
2019-03-17T15:34:49.726Z,99653.92
2019-03-17T15:37:21.858Z,99666.63
2019-03-17T15:39:53.671Z,99666.78
2019-03-17T15:42:25.838Z,99673.01
2019-03-17T15:44:57.569Z,99665.70
2019-03-17T15:47:29.306Z,99680.17
2019-03-17T15:50:01.427Z,99692.12
2019-03-17T15:52:33.560Z,99703.28
2019-03-17T15:55:05.888Z,99706.42
2019-03-17T15:57:37.741Z,99703.80
2019-03-17T16:00:24.838Z,99702.10
2019-03-17T16:02:49.936Z,99715.88
2019-03-17T16:05:21.789Z,99734.84
2019-03-17T16:07:53.961Z,99722.53
2019-03-17T16:10:26.033Z,99701.25
2019-03-17T16:12:57.837Z,99730.28
2019-03-17T16:15:29.509Z,99729.19
2019-03-17T16:18:01.265Z,99720.77
2019-03-17T16:20:33.463Z,99723.59
2019-03-17T16:23:05.747Z,99730.81
2019-03-17T16:25:37.741Z,99730.18
2019-03-17T16:28:09.655Z,99735.53
2019-03-17T16:30:41.609Z,99744.36
2019-03-17T16:33:13.478Z,99736.20
2019-03-17T16:35:46.358Z,99730.58
2019-03-17T16:38:19.015Z,99722.78
2019-03-17T16:40:50.992Z,99738.09
2019-03-17T16:43:22.824Z,99739.80
2019-03-17T16:45:54.589Z,99745.09
2019-03-17T16:48:26.316Z,99739.48
2019-03-17T16:50:58.033Z,99745.23
2019-03-17T16:53:30.443Z,99744.78
2019-03-17T16:56:02.167Z,99750.53
2019-03-17T16:58:34.013Z,99764.63
2019-03-17T17:01:06.055Z,99765.08
2019-03-17T17:03:37.911Z,99756.38
2019-03-17T17:06:09.829Z,99760.61
2019-03-17T17:08:42.351Z,99770.16
2019-03-17T17:11:14.170Z,99801.66
2019-03-17T17:13:45.915Z,99808.20
2019-03-17T17:16:17.798Z,99804.27
2019-03-17T17:18:49.688Z,99822.10
2019-03-17T17:21:21.549Z,99848.36
2019-03-17T17:23:54.134Z,99836.13
2019-03-17T17:26:36.563Z,99826.52
2019-03-17T17:28:56.397Z,99844.84
2019-03-17T17:31:30.205Z,99854.91
2019-03-17T17:34:02.266Z,99852.69
2019-03-17T17:36:34.359Z,99861.50
2019-03-17T17:39:09.571Z,99885.20
2019-03-17T17:41:41.915Z,99874.53
2019-03-17T17:44:13.777Z,99853.86
2019-03-17T17:46:46.056Z,99858.69
2019-03-17T17:49:18.195Z,99844.30
2019-03-17T17:51:50.156Z,99856.98
2019-03-17T17:54:22.205Z,99870.52
2019-03-17T17:56:54.143Z,99888.17
2019-03-17T17:59:26.013Z,99890.22
2019-03-17T18:01:58.542Z,99872.20
2019-03-17T18:04:30.403Z,99884.38
2019-03-17T18:07:02.352Z,99869.73
2019-03-17T18:09:34.302Z,99878.22
2019-03-17T18:12:06.223Z,99905.06
2019-03-17T18:14:38.204Z,99879.22
2019-03-17T18:17:10.790Z,99872.14
2019-03-17T18:19:42.660Z,99877.66
2019-03-17T18:22:14.523Z,99858.44
2019-03-17T18:24:46.344Z,99847.91
2019-03-17T18:27:18.423Z,99841.20
2019-03-17T18:29:50.410Z,99865.48
2019-03-17T18:32:22.911Z,99900.57
2019-03-17T18:34:55.332Z,99882.52
2019-03-17T18:37:27.131Z,99888.94
2019-03-17T18:39:59.081Z,99896.55
2019-03-17T18:42:33.252Z,99903.59
2019-03-17T18:45:04.943Z,99905.42
2019-03-17T18:47:37.530Z,99922.89
2019-03-17T18:50:19.494Z,99939.08
2019-03-17T18:52:43.887Z,99938.72
2019-03-17T18:55:15.935Z,99936.60
2019-03-17T18:57:48.099Z,99947.17
2019-03-17T19:00:19.949Z,99966.42
2019-03-17T19:02:52.568Z,99956.52
2019-03-17T19:05:24.471Z,99956.64
2019-03-17T19:07:56.433Z,99972.05
2019-03-17T19:10:28.457Z,99991.71
2019-03-17T19:13:00.371Z,99988.32
2019-03-17T19:15:32.220Z,99993.98
2019-03-17T19:18:04.119Z,100021.39
2019-03-17T19:20:36.339Z,100017.97
2019-03-17T19:23:08.156Z,100014.98
2019-03-17T19:25:39.933Z,100020.58
2019-03-17T19:28:12.113Z,100031.09
2019-03-17T19:30:44.147Z,100040.71
2019-03-17T19:33:16.028Z,100051.27
2019-03-17T19:35:48.570Z,100052.65
2019-03-17T19:38:20.576Z,100033.19
2019-03-17T19:40:52.420Z,100050.23
2019-03-17T19:43:24.480Z,100052.05
2019-03-17T19:45:56.340Z,100047.28
2019-03-17T19:48:28.032Z,100066.00
2019-03-17T19:51:00.889Z,100068.19
2019-03-17T19:53:32.601Z,100073.86
2019-03-17T19:56:04.670Z,100073.56
2019-03-17T19:58:36.431Z,100091.00
2019-03-17T20:01:08.421Z,100081.09
2019-03-17T20:03:40.412Z,100093.72
2019-03-17T20:06:12.983Z,100099.87
2019-03-17T20:08:44.944Z,100105.56
2019-03-17T20:11:16.783Z,100112.46
2019-03-17T20:13:48.787Z,100117.30
2019-03-17T20:16:20.664Z,100130.83
2019-03-17T20:18:52.771Z,100144.80
2019-03-17T20:21:25.310Z,100148.27
2019-03-17T20:23:57.069Z,100156.05
2019-03-17T20:26:28.784Z,100159.14
2019-03-17T20:29:00.785Z,100165.77
2019-03-17T20:31:32.815Z,100177.09
2019-03-17T20:34:04.548Z,100186.73
2019-03-17T20:36:36.419Z,100197.27
2019-03-17T20:39:09.571Z,100202.58
2019-03-17T20:41:41.298Z,100203.98
2019-03-17T20:44:13.232Z,100207.96
2019-03-17T20:46:45.433Z,100221.51
2019-03-17T20:49:17.564Z,100218.97
2019-03-17T20:51:49.509Z,100235.50
2019-03-17T20:54:22.157Z,100236.42
2019-03-17T20:56:54.183Z,100234.27
2019-03-17T20:59:26.379Z,100238.61
2019-03-17T21:01:58.275Z,100235.59
2019-03-17T21:04:30.413Z,100236.96
2019-03-17T21:07:02.500Z,100234.04
2019-03-17T21:09:35.309Z,100244.97
2019-03-17T21:12:07.123Z,100245.45
2019-03-17T21:14:38.952Z,100252.50
2019-03-17T21:17:10.722Z,100245.28
2019-03-17T21:19:42.764Z,100256.25
2019-03-17T21:22:14.529Z,100261.52
2019-03-17T21:24:47.001Z,100257.28
2019-03-17T21:27:18.880Z,100263.83
2019-03-17T21:29:50.652Z,100263.92
2019-03-17T21:32:22.409Z,100263.48
2019-03-17T21:34:54.289Z,100270.46
2019-03-17T21:37:26.196Z,100265.78
2019-03-17T21:39:58.551Z,100266.77
2019-03-17T21:42:30.348Z,100270.75
2019-03-17T21:45:02.081Z,100266.97
2019-03-17T21:47:33.766Z,100273.98
2019-03-17T21:50:06.948Z,100276.70
2019-03-17T21:52:38.586Z,100275.09
2019-03-17T21:55:11.222Z,100277.33
2019-03-17T21:57:43.041Z,100278.70
2019-03-17T22:00:16.207Z,100277.42
2019-03-17T22:02:47.924Z,100280.99
2019-03-17T22:05:19.736Z,100276.76
2019-03-17T22:07:51.764Z,100288.05
2019-03-17T22:10:24.123Z,100287.64
2019-03-17T22:12:55.974Z,100293.72
2019-03-17T22:15:27.737Z,100288.58
2019-03-17T22:17:59.439Z,100293.41
2019-03-17T22:20:31.266Z,100289.59
2019-03-17T22:23:03.038Z,100300.02
2019-03-17T22:25:34.768Z,100298.36
2019-03-17T22:28:08.625Z,100305.34
2019-03-17T22:30:40.566Z,100307.08
2019-03-17T22:33:12.771Z,100313.64
2019-03-17T22:35:44.541Z,100312.34
2019-03-17T22:38:16.354Z,100320.17
2019-03-17T22:40:48.050Z,100314.55
2019-03-17T22:43:20.411Z,100318.45
2019-03-17T22:45:52.159Z,100317.17
2019-03-17T22:48:23.819Z,100313.71
2019-03-17T22:50:55.586Z,100325.48
2019-03-17T22:53:27.300Z,100327.66
2019-03-17T22:55:58.998Z,100333.75
2019-03-17T22:58:31.446Z,100328.55
2019-03-17T23:01:03.324Z,100326.80
2019-03-17T23:03:34.945Z,100332.00
2019-03-17T23:06:06.678Z,100338.93
2019-03-17T23:08:38.332Z,100345.00
2019-03-17T23:11:10.006Z,100349.70
2019-03-17T23:13:42.368Z,100347.52
2019-03-17T23:16:14.011Z,100359.65
2019-03-17T23:18:46.688Z,100360.11
2019-03-17T23:21:18.363Z,100353.17
2019-03-17T23:23:50.011Z,100359.67
2019-03-17T23:26:21.631Z,100355.75
2019-03-17T23:28:54.166Z,100361.34
2019-03-17T23:31:25.813Z,100367.36
2019-03-17T23:33:57.445Z,100362.99
2019-03-17T23:36:29.072Z,100364.66
2019-03-17T23:39:00.811Z,100362.47
2019-03-17T23:41:32.416Z,100366.35
2019-03-17T23:44:04.674Z,100367.66
2019-03-17T23:46:36.284Z,100368.09
2019-03-17T23:49:07.940Z,100364.63
2019-03-17T23:51:39.551Z,100371.11
2019-03-17T23:54:11.157Z,100368.07
2019-03-17T23:56:42.769Z,100374.16
2019-03-17T23:59:14.389Z,100369.40
